sensor_id;sensor_type;location;lat;lon;timestamp;P1;durP1;ratioP1;P2;durP2;ratioP2
2289;SDS011;1153;47.986;7.898;2022-12-01T00:01:10;3.67;;;3.37;;
2289;SDS011;1153;47.986;7.898;2022-12-01T00:03:36;2.07;;;1.97;;
2289;SDS011;1153;47.986;7.898;2022-12-01T00:06:02;2.30;;;2.10;;
2289;SDS011;1153;47.986;7.898;2022-12-01T00:08:28;3.40;;;2.97;;
2289;SDS011;1153;47.986;7.898;2022-12-01T00:10:53;3.57;;;3.37;;
2289;SDS011;1153;47.986;7.898;2022-12-01T00:13:19;2.90;;;2.70;;
2289;SDS011;1153;47.986;7.898;2022-12-01T00:15:44;3.20;;;2.90;;
2289;SDS011;1153;47.986;7.898;2022-12-01T00:18:09;3.17;;;2.93;;
2289;SDS011;1153;47.986;7.898;2022-12-01T00:20:34;2.93;;;2.73;;
2289;SDS011;1153;47.986;7.898;2022-12-01T00:23:00;2.70;;;2.50;;
2289;SDS011;1153;47.986;7.898;2022-12-01T00:25:25;2.87;;;2.67;;
2289;SDS011;1153;47.986;7.898;2022-12-01T00:27:51;2.80;;;2.60;;
2289;SDS011;1153;47.986;7.898;2022-12-01T00:30:17;1.90;;;1.70;;
2289;SDS011;1153;47.986;7.898;2022-12-01T00:32:43;6.73;;;2.07;;
2289;SDS011;1153;47.986;7.898;2022-12-01T00:35:08;1.53;;;1.43;;
2289;SDS011;1153;47.986;7.898;2022-12-01T00:37:33;2.60;;;2.30;;
2289;SDS011;1153;47.986;7.898;2022-12-01T00:39:58;1.87;;;1.77;;
2289;SDS011;1153;47.986;7.898;2022-12-01T00:42:24;1.60;;;1.40;;
2289;SDS011;1153;47.986;7.898;2022-12-01T00:44:49;6.10;;;1.83;;
2289;SDS011;1153;47.986;7.898;2022-12-01T00:47:15;1.87;;;1.63;;
2289;SDS011;1153;47.986;7.898;2022-12-01T00:49:40;3.13;;;2.83;;
2289;SDS011;1153;47.986;7.898;2022-12-01T00:52:05;2.20;;;1.87;;
2289;SDS011;1153;47.986;7.898;2022-12-01T00:54:30;2.23;;;2.03;;
2289;SDS011;1153;47.986;7.898;2022-12-01T00:56:58;2.43;;;1.83;;
2289;SDS011;1153;47.986;7.898;2022-12-01T00:59:24;2.37;;;1.90;;
2289;SDS011;1153;47.986;7.898;2022-12-01T01:01:49;2.50;;;2.30;;
2289;SDS011;1153;47.986;7.898;2022-12-01T01:04:14;1.83;;;1.73;;
2289;SDS011;1153;47.986;7.898;2022-12-01T01:06:40;2.50;;;2.30;;
2289;SDS011;1153;47.986;7.898;2022-12-01T01:09:07;2.50;;;2.30;;
2289;SDS011;1153;47.986;7.898;2022-12-01T01:11:32;3.33;;;3.03;;
2289;SDS011;1153;47.986;7.898;2022-12-01T01:13:58;1.77;;;1.67;;
2289;SDS011;1153;47.986;7.898;2022-12-01T01:16:23;2.57;;;2.37;;
2289;SDS011;1153;47.986;7.898;2022-12-01T01:18:49;2.10;;;1.93;;
2289;SDS011;1153;47.986;7.898;2022-12-01T01:21:15;1.87;;;1.77;;
2289;SDS011;1153;47.986;7.898;2022-12-01T01:23:41;2.27;;;1.73;;
2289;SDS011;1153;47.986;7.898;2022-12-01T01:26:07;1.97;;;1.77;;
2289;SDS011;1153;47.986;7.898;2022-12-01T01:28:33;1.60;;;1.50;;
2289;SDS011;1153;47.986;7.898;2022-12-01T01:30:58;2.60;;;2.40;;
2289;SDS011;1153;47.986;7.898;2022-12-01T01:33:24;1.70;;;1.60;;
2289;SDS011;1153;47.986;7.898;2022-12-01T01:35:49;2.60;;;2.40;;
2289;SDS011;1153;47.986;7.898;2022-12-01T01:38:14;1.87;;;1.77;;
2289;SDS011;1153;47.986;7.898;2022-12-01T01:40:43;1.93;;;1.73;;
2289;SDS011;1153;47.986;7.898;2022-12-01T01:43:15;2.27;;;2.07;;
2289;SDS011;1153;47.986;7.898;2022-12-01T01:45:40;2.50;;;2.30;;
2289;SDS011;1153;47.986;7.898;2022-12-01T01:48:05;2.50;;;2.30;;
2289;SDS011;1153;47.986;7.898;2022-12-01T01:50:31;3.60;;;2.27;;
2289;SDS011;1153;47.986;7.898;2022-12-01T01:52:58;1.73;;;1.63;;
2289;SDS011;1153;47.986;7.898;2022-12-01T01:55:24;4.37;;;2.10;;
2289;SDS011;1153;47.986;7.898;2022-12-01T01:57:50;1.80;;;1.57;;
2289;SDS011;1153;47.986;7.898;2022-12-01T02:00:16;6.23;;;2.70;;
2289;SDS011;1153;47.986;7.898;2022-12-01T02:02:42;1.97;;;1.77;;
2289;SDS011;1153;47.986;7.898;2022-12-01T02:05:08;6.00;;;2.33;;
2289;SDS011;1153;47.986;7.898;2022-12-01T02:07:36;2.47;;;2.27;;
2289;SDS011;1153;47.986;7.898;2022-12-01T02:10:02;2.27;;;2.10;;
2289;SDS011;1153;47.986;7.898;2022-12-01T02:17:54;2.23;;;2.03;;
2289;SDS011;1153;47.986;7.898;2022-12-01T02:23:17;2.23;;;2.13;;
2289;SDS011;1153;47.986;7.898;2022-12-01T02:30:47;1.60;;;1.40;;
2289;SDS011;1153;47.986;7.898;2022-12-01T02:36:11;2.00;;;1.80;;
2289;SDS011;1153;47.986;7.898;2022-12-01T02:38:39;1.90;;;1.73;;
2289;SDS011;1153;47.986;7.898;2022-12-01T02:41:20;5.40;;;2.57;;
2289;SDS011;1153;47.986;7.898;2022-12-01T02:46:21;3.47;;;2.47;;
2289;SDS011;1153;47.986;7.898;2022-12-01T02:48:48;2.87;;;2.67;;
2289;SDS011;1153;47.986;7.898;2022-12-01T02:51:16;2.80;;;2.57;;
2289;SDS011;1153;47.986;7.898;2022-12-01T02:53:43;3.03;;;2.83;;
2289;SDS011;1153;47.986;7.898;2022-12-01T02:56:10;2.83;;;2.63;;
2289;SDS011;1153;47.986;7.898;2022-12-01T02:58:35;2.83;;;2.63;;
2289;SDS011;1153;47.986;7.898;2022-12-01T03:01:06;4.97;;;3.07;;
2289;SDS011;1153;47.986;7.898;2022-12-01T03:06:22;3.30;;;3.00;;
2289;SDS011;1153;47.986;7.898;2022-12-01T03:08:53;3.40;;;3.10;;
2289;SDS011;1153;47.986;7.898;2022-12-01T03:11:26;3.80;;;2.87;;
2289;SDS011;1153;47.986;7.898;2022-12-01T03:16:40;3.40;;;3.20;;
2289;SDS011;1153;47.986;7.898;2022-12-01T03:22:00;9.80;;;5.73;;
2289;SDS011;1153;47.986;7.898;2022-12-01T03:24:28;9.67;;;6.70;;
2289;SDS011;1153;47.986;7.898;2022-12-01T03:26:56;6.57;;;5.97;;
2289;SDS011;1153;47.986;7.898;2022-12-01T03:29:25;11.70;;;6.97;;
2289;SDS011;1153;47.986;7.898;2022-12-01T03:31:52;10.23;;;7.40;;
2289;SDS011;1153;47.986;7.898;2022-12-01T03:34:30;12.77;;;8.40;;
2289;SDS011;1153;47.986;7.898;2022-12-01T03:37:00;16.33;;;8.80;;
2289;SDS011;1153;47.986;7.898;2022-12-01T03:39:29;18.67;;;8.57;;
2289;SDS011;1153;47.986;7.898;2022-12-01T03:42:03;17.40;;;9.80;;
2289;SDS011;1153;47.986;7.898;2022-12-01T03:44:36;17.40;;;9.87;;
2289;SDS011;1153;47.986;7.898;2022-12-01T03:47:07;12.93;;;8.63;;
2289;SDS011;1153;47.986;7.898;2022-12-01T03:49:34;18.03;;;9.93;;
2289;SDS011;1153;47.986;7.898;2022-12-01T03:57:04;17.63;;;9.80;;
2289;SDS011;1153;47.986;7.898;2022-12-01T03:59:30;15.73;;;10.20;;
2289;SDS011;1153;47.986;7.898;2022-12-01T04:01:56;16.07;;;8.57;;
2289;SDS011;1153;47.986;7.898;2022-12-01T04:04:21;16.53;;;10.10;;
2289;SDS011;1153;47.986;7.898;2022-12-01T04:06:47;21.70;;;10.70;;
2289;SDS011;1153;47.986;7.898;2022-12-01T04:09:13;18.03;;;9.63;;
2289;SDS011;1153;47.986;7.898;2022-12-01T04:11:39;21.53;;;10.23;;
2289;SDS011;1153;47.986;7.898;2022-12-01T04:14:23;21.20;;;9.60;;
2289;SDS011;1153;47.986;7.898;2022-12-01T04:16:48;18.80;;;10.73;;
2289;SDS011;1153;47.986;7.898;2022-12-01T04:19:13;18.87;;;8.93;;
2289;SDS011;1153;47.986;7.898;2022-12-01T04:21:38;20.83;;;10.93;;
2289;SDS011;1153;47.986;7.898;2022-12-01T04:24:03;23.47;;;9.90;;
2289;SDS011;1153;47.986;7.898;2022-12-01T04:26:29;19.83;;;9.90;;
2289;SDS011;1153;47.986;7.898;2022-12-01T04:28:56;17.90;;;9.87;;
2289;SDS011;1153;47.986;7.898;2022-12-01T04:31:21;17.73;;;10.97;;
2289;SDS011;1153;47.986;7.898;2022-12-01T04:33:46;19.03;;;9.10;;
2289;SDS011;1153;47.986;7.898;2022-12-01T04:36:11;15.70;;;8.77;;
2289;SDS011;1153;47.986;7.898;2022-12-01T04:38:37;18.87;;;9.80;;
2289;SDS011;1153;47.986;7.898;2022-12-01T04:41:08;18.53;;;9.93;;
2289;SDS011;1153;47.986;7.898;2022-12-01T04:43:34;21.40;;;10.57;;
2289;SDS011;1153;47.986;7.898;2022-12-01T04:46:00;16.30;;;8.37;;
2289;SDS011;1153;47.986;7.898;2022-12-01T04:48:25;15.47;;;9.20;;
2289;SDS011;1153;47.986;7.898;2022-12-01T04:50:51;14.50;;;9.10;;
2289;SDS011;1153;47.986;7.898;2022-12-01T04:53:16;16.77;;;8.20;;
2289;SDS011;1153;47.986;7.898;2022-12-01T04:55:41;14.57;;;8.40;;
2289;SDS011;1153;47.986;7.898;2022-12-01T04:58:06;15.73;;;9.03;;
2289;SDS011;1153;47.986;7.898;2022-12-01T05:00:32;16.40;;;8.83;;
2289;SDS011;1153;47.986;7.898;2022-12-01T05:02:57;19.87;;;10.00;;
2289;SDS011;1153;47.986;7.898;2022-12-01T05:05:23;15.30;;;8.87;;
2289;SDS011;1153;47.986;7.898;2022-12-01T05:07:48;20.60;;;10.40;;
2289;SDS011;1153;47.986;7.898;2022-12-01T05:10:13;17.07;;;8.90;;
2289;SDS011;1153;47.986;7.898;2022-12-01T05:12:38;16.60;;;8.90;;
2289;SDS011;1153;47.986;7.898;2022-12-01T05:15:05;14.23;;;9.20;;
2289;SDS011;1153;47.986;7.898;2022-12-01T05:17:31;17.20;;;9.03;;
2289;SDS011;1153;47.986;7.898;2022-12-01T05:19:56;20.83;;;9.70;;
2289;SDS011;1153;47.986;7.898;2022-12-01T05:22:40;17.87;;;8.97;;
2289;SDS011;1153;47.986;7.898;2022-12-01T05:25:05;17.77;;;8.30;;
2289;SDS011;1153;47.986;7.898;2022-12-01T05:27:30;15.30;;;8.83;;
2289;SDS011;1153;47.986;7.898;2022-12-01T05:29:55;12.57;;;7.23;;
2289;SDS011;1153;47.986;7.898;2022-12-01T05:32:21;14.23;;;8.17;;
2289;SDS011;1153;47.986;7.898;2022-12-01T05:34:46;20.10;;;9.87;;
2289;SDS011;1153;47.986;7.898;2022-12-01T05:37:11;15.83;;;9.37;;
2289;SDS011;1153;47.986;7.898;2022-12-01T05:39:36;16.10;;;9.03;;
2289;SDS011;1153;47.986;7.898;2022-12-01T05:42:01;16.00;;;8.10;;
2289;SDS011;1153;47.986;7.898;2022-12-01T05:44:27;18.67;;;9.10;;
2289;SDS011;1153;47.986;7.898;2022-12-01T05:46:52;20.63;;;8.90;;
2289;SDS011;1153;47.986;7.898;2022-12-01T05:49:17;19.50;;;9.93;;
2289;SDS011;1153;47.986;7.898;2022-12-01T05:51:42;23.47;;;9.03;;
2289;SDS011;1153;47.986;7.898;2022-12-01T05:54:08;16.53;;;8.43;;
2289;SDS011;1153;47.986;7.898;2022-12-01T05:56:33;16.97;;;9.50;;
2289;SDS011;1153;47.986;7.898;2022-12-01T05:58:58;18.67;;;9.47;;
2289;SDS011;1153;47.986;7.898;2022-12-01T06:01:23;13.77;;;8.30;;
2289;SDS011;1153;47.986;7.898;2022-12-01T06:03:48;12.60;;;7.57;;
2289;SDS011;1153;47.986;7.898;2022-12-01T06:06:14;15.90;;;7.97;;
2289;SDS011;1153;47.986;7.898;2022-12-01T06:08:39;17.27;;;8.37;;
2289;SDS011;1153;47.986;7.898;2022-12-01T06:11:04;17.43;;;9.40;;
2289;SDS011;1153;47.986;7.898;2022-12-01T06:13:29;15.40;;;7.83;;
2289;SDS011;1153;47.986;7.898;2022-12-01T06:15:56;10.60;;;7.33;;
2289;SDS011;1153;47.986;7.898;2022-12-01T06:18:21;17.40;;;7.37;;
2289;SDS011;1153;47.986;7.898;2022-12-01T06:20:46;16.27;;;8.60;;
2289;SDS011;1153;47.986;7.898;2022-12-01T06:23:12;13.03;;;7.50;;
2289;SDS011;1153;47.986;7.898;2022-12-01T06:25:37;12.90;;;7.00;;
2289;SDS011;1153;47.986;7.898;2022-12-01T06:28:02;14.37;;;7.73;;
2289;SDS011;1153;47.986;7.898;2022-12-01T06:30:27;18.17;;;8.80;;
2289;SDS011;1153;47.986;7.898;2022-12-01T06:32:52;11.83;;;7.60;;
2289;SDS011;1153;47.986;7.898;2022-12-01T06:35:18;12.80;;;8.23;;
2289;SDS011;1153;47.986;7.898;2022-12-01T06:37:43;14.10;;;7.33;;
2289;SDS011;1153;47.986;7.898;2022-12-01T06:40:08;10.30;;;7.80;;
2289;SDS011;1153;47.986;7.898;2022-12-01T06:42:34;11.17;;;7.00;;
2289;SDS011;1153;47.986;7.898;2022-12-01T06:44:59;13.03;;;7.73;;
2289;SDS011;1153;47.986;7.898;2022-12-01T06:47:24;11.83;;;7.40;;
2289;SDS011;1153;47.986;7.898;2022-12-01T06:49:49;12.23;;;7.63;;
2289;SDS011;1153;47.986;7.898;2022-12-01T06:52:15;14.77;;;8.37;;
2289;SDS011;1153;47.986;7.898;2022-12-01T06:54:40;11.10;;;7.60;;
2289;SDS011;1153;47.986;7.898;2022-12-01T06:57:05;12.47;;;8.80;;
2289;SDS011;1153;47.986;7.898;2022-12-01T06:59:30;12.03;;;8.60;;
2289;SDS011;1153;47.986;7.898;2022-12-01T07:01:55;12.90;;;8.50;;
2289;SDS011;1153;47.986;7.898;2022-12-01T07:04:21;17.40;;;9.53;;
2289;SDS011;1153;47.986;7.898;2022-12-01T07:06:47;12.97;;;9.40;;
2289;SDS011;1153;47.986;7.898;2022-12-01T07:09:12;14.93;;;9.03;;
2289;SDS011;1153;47.986;7.898;2022-12-01T07:11:37;13.23;;;7.90;;
2289;SDS011;1153;47.986;7.898;2022-12-01T07:14:02;18.73;;;9.77;;
2289;SDS011;1153;47.986;7.898;2022-12-01T07:16:27;19.63;;;9.70;;
2289;SDS011;1153;47.986;7.898;2022-12-01T07:18:53;14.53;;;9.67;;
2289;SDS011;1153;47.986;7.898;2022-12-01T07:21:18;19.83;;;10.77;;
2289;SDS011;1153;47.986;7.898;2022-12-01T07:23:43;16.40;;;10.30;;
2289;SDS011;1153;47.986;7.898;2022-12-01T07:26:09;15.07;;;9.30;;
2289;SDS011;1153;47.986;7.898;2022-12-01T07:28:35;17.97;;;10.70;;
2289;SDS011;1153;47.986;7.898;2022-12-01T07:31:01;19.13;;;9.40;;
2289;SDS011;1153;47.986;7.898;2022-12-01T07:33:26;19.17;;;11.17;;
2289;SDS011;1153;47.986;7.898;2022-12-01T07:35:52;17.70;;;10.23;;
2289;SDS011;1153;47.986;7.898;2022-12-01T07:38:17;15.30;;;10.10;;
2289;SDS011;1153;47.986;7.898;2022-12-01T07:40:42;16.83;;;9.43;;
2289;SDS011;1153;47.986;7.898;2022-12-01T07:43:07;22.63;;;10.83;;
2289;SDS011;1153;47.986;7.898;2022-12-01T07:45:33;16.50;;;8.50;;
2289;SDS011;1153;47.986;7.898;2022-12-01T07:47:58;16.53;;;9.57;;
2289;SDS011;1153;47.986;7.898;2022-12-01T07:50:23;20.50;;;10.20;;
2289;SDS011;1153;47.986;7.898;2022-12-01T07:52:49;11.47;;;8.13;;
2289;SDS011;1153;47.986;7.898;2022-12-01T07:55:14;12.07;;;7.67;;
2289;SDS011;1153;47.986;7.898;2022-12-01T07:57:40;14.77;;;8.70;;
2289;SDS011;1153;47.986;7.898;2022-12-01T08:00:05;17.57;;;9.50;;
2289;SDS011;1153;47.986;7.898;2022-12-01T08:02:31;17.10;;;9.80;;
2289;SDS011;1153;47.986;7.898;2022-12-01T08:04:57;14.13;;;7.87;;
2289;SDS011;1153;47.986;7.898;2022-12-01T08:07:23;13.40;;;8.40;;
2289;SDS011;1153;47.986;7.898;2022-12-01T08:09:48;10.73;;;7.63;;
2289;SDS011;1153;47.986;7.898;2022-12-01T08:12:13;19.53;;;8.77;;
2289;SDS011;1153;47.986;7.898;2022-12-01T08:14:38;13.60;;;8.73;;
2289;SDS011;1153;47.986;7.898;2022-12-01T08:17:03;17.43;;;9.37;;
2289;SDS011;1153;47.986;7.898;2022-12-01T08:19:29;16.83;;;8.83;;
2289;SDS011;1153;47.986;7.898;2022-12-01T08:21:54;12.97;;;7.40;;
2289;SDS011;1153;47.986;7.898;2022-12-01T08:24:19;15.93;;;9.13;;
2289;SDS011;1153;47.986;7.898;2022-12-01T08:26:44;12.03;;;7.70;;
2289;SDS011;1153;47.986;7.898;2022-12-01T08:29:09;14.73;;;8.70;;
2289;SDS011;1153;47.986;7.898;2022-12-01T08:31:35;17.83;;;9.67;;
2289;SDS011;1153;47.986;7.898;2022-12-01T08:34:03;17.90;;;9.27;;
2289;SDS011;1153;47.986;7.898;2022-12-01T08:36:29;16.27;;;9.30;;
2289;SDS011;1153;47.986;7.898;2022-12-01T08:38:54;14.37;;;8.27;;
2289;SDS011;1153;47.986;7.898;2022-12-01T08:41:20;19.20;;;9.07;;
2289;SDS011;1153;47.986;7.898;2022-12-01T08:43:45;15.80;;;8.60;;
2289;SDS011;1153;47.986;7.898;2022-12-01T08:46:11;16.73;;;8.40;;
2289;SDS011;1153;47.986;7.898;2022-12-01T08:48:37;17.70;;;9.03;;
2289;SDS011;1153;47.986;7.898;2022-12-01T08:51:06;18.17;;;9.23;;
2289;SDS011;1153;47.986;7.898;2022-12-01T08:53:32;21.07;;;10.50;;
2289;SDS011;1153;47.986;7.898;2022-12-01T08:55:58;16.70;;;9.33;;
2289;SDS011;1153;47.986;7.898;2022-12-01T08:58:24;18.37;;;8.73;;
2289;SDS011;1153;47.986;7.898;2022-12-01T09:00:50;16.50;;;9.07;;
2289;SDS011;1153;47.986;7.898;2022-12-01T09:03:15;17.83;;;10.30;;
2289;SDS011;1153;47.986;7.898;2022-12-01T09:05:40;15.40;;;9.23;;
2289;SDS011;1153;47.986;7.898;2022-12-01T09:08:05;19.00;;;10.30;;
2289;SDS011;1153;47.986;7.898;2022-12-01T09:11:01;18.20;;;8.73;;
2289;SDS011;1153;47.986;7.898;2022-12-01T09:13:26;21.30;;;10.50;;
2289;SDS011;1153;47.986;7.898;2022-12-01T09:15:59;30.63;;;11.80;;
2289;SDS011;1153;47.986;7.898;2022-12-01T09:18:24;20.70;;;10.20;;
2289;SDS011;1153;47.986;7.898;2022-12-01T09:20:50;19.43;;;11.30;;
2289;SDS011;1153;47.986;7.898;2022-12-01T09:23:15;17.03;;;9.00;;
2289;SDS011;1153;47.986;7.898;2022-12-01T09:25:40;21.83;;;10.00;;
2289;SDS011;1153;47.986;7.898;2022-12-01T09:28:06;23.23;;;11.90;;
2289;SDS011;1153;47.986;7.898;2022-12-01T09:30:33;17.03;;;9.03;;
2289;SDS011;1153;47.986;7.898;2022-12-01T09:32:58;20.63;;;9.73;;
2289;SDS011;1153;47.986;7.898;2022-12-01T09:35:24;17.20;;;10.40;;
2289;SDS011;1153;47.986;7.898;2022-12-01T09:37:50;18.87;;;10.53;;
2289;SDS011;1153;47.986;7.898;2022-12-01T09:40:15;20.80;;;10.30;;
2289;SDS011;1153;47.986;7.898;2022-12-01T09:42:41;16.77;;;9.93;;
2289;SDS011;1153;47.986;7.898;2022-12-01T09:45:06;15.93;;;8.00;;
2289;SDS011;1153;47.986;7.898;2022-12-01T09:47:36;12.87;;;9.40;;
2289;SDS011;1153;47.986;7.898;2022-12-01T09:52:27;20.87;;;9.80;;
2289;SDS011;1153;47.986;7.898;2022-12-01T09:54:54;18.90;;;9.93;;
2289;SDS011;1153;47.986;7.898;2022-12-01T09:57:26;19.07;;;10.40;;
2289;SDS011;1153;47.986;7.898;2022-12-01T09:59:52;21.50;;;9.97;;
2289;SDS011;1153;47.986;7.898;2022-12-01T10:02:26;19.67;;;9.03;;
2289;SDS011;1153;47.986;7.898;2022-12-01T10:04:53;22.00;;;9.90;;
2289;SDS011;1153;47.986;7.898;2022-12-01T10:09:51;21.37;;;10.67;;
2289;SDS011;1153;47.986;7.898;2022-12-01T10:12:18;16.33;;;9.40;;
2289;SDS011;1153;47.986;7.898;2022-12-01T10:14:44;21.73;;;10.27;;
2289;SDS011;1153;47.986;7.898;2022-12-01T10:19:45;18.67;;;9.77;;
2289;SDS011;1153;47.986;7.898;2022-12-01T10:24:55;21.80;;;11.60;;
2289;SDS011;1153;47.986;7.898;2022-12-01T10:27:27;15.43;;;10.13;;
2289;SDS011;1153;47.986;7.898;2022-12-01T10:30:01;23.80;;;10.83;;
2289;SDS011;1153;47.986;7.898;2022-12-01T10:32:34;22.03;;;11.10;;
2289;SDS011;1153;47.986;7.898;2022-12-01T10:35:02;21.93;;;10.60;;
2289;SDS011;1153;47.986;7.898;2022-12-01T10:37:28;22.27;;;10.50;;
2289;SDS011;1153;47.986;7.898;2022-12-01T10:39:54;15.60;;;9.47;;
2289;SDS011;1153;47.986;7.898;2022-12-01T10:44:45;20.20;;;10.00;;
2289;SDS011;1153;47.986;7.898;2022-12-01T10:47:16;21.90;;;10.07;;
2289;SDS011;1153;47.986;7.898;2022-12-01T10:49:42;22.53;;;10.60;;
2289;SDS011;1153;47.986;7.898;2022-12-01T10:52:09;19.63;;;9.40;;
2289;SDS011;1153;47.986;7.898;2022-12-01T10:54:49;24.27;;;11.13;;
2289;SDS011;1153;47.986;7.898;2022-12-01T10:57:15;21.63;;;9.20;;
2289;SDS011;1153;47.986;7.898;2022-12-01T10:59:51;17.50;;;8.67;;
2289;SDS011;1153;47.986;7.898;2022-12-01T11:02:22;16.27;;;8.73;;
2289;SDS011;1153;47.986;7.898;2022-12-01T11:04:52;21.63;;;9.67;;
2289;SDS011;1153;47.986;7.898;2022-12-01T11:07:28;14.90;;;8.70;;
2289;SDS011;1153;47.986;7.898;2022-12-01T11:10:00;14.37;;;8.13;;
2289;SDS011;1153;47.986;7.898;2022-12-01T11:12:26;16.60;;;9.00;;
2289;SDS011;1153;47.986;7.898;2022-12-01T11:14:52;11.23;;;7.20;;
2289;SDS011;1153;47.986;7.898;2022-12-01T11:17:24;17.00;;;8.70;;
2289;SDS011;1153;47.986;7.898;2022-12-01T11:19:50;12.30;;;7.17;;
2289;SDS011;1153;47.986;7.898;2022-12-01T11:27:21;13.83;;;8.63;;
2289;SDS011;1153;47.986;7.898;2022-12-01T11:29:47;12.20;;;7.37;;
2289;SDS011;1153;47.986;7.898;2022-12-01T11:34:52;11.90;;;7.33;;
2289;SDS011;1153;47.986;7.898;2022-12-01T11:37:19;9.93;;;6.33;;
2289;SDS011;1153;47.986;7.898;2022-12-01T11:39:45;13.53;;;7.23;;
2289;SDS011;1153;47.986;7.898;2022-12-01T11:44:37;11.17;;;6.57;;
2289;SDS011;1153;47.986;7.898;2022-12-01T11:49:38;7.43;;;5.80;;
2289;SDS011;1153;47.986;7.898;2022-12-01T11:52:15;8.53;;;5.47;;
2289;SDS011;1153;47.986;7.898;2022-12-01T11:54:45;8.10;;;6.10;;
2289;SDS011;1153;47.986;7.898;2022-12-01T11:57:18;10.80;;;6.07;;
2289;SDS011;1153;47.986;7.898;2022-12-01T11:59:43;8.00;;;5.97;;
2289;SDS011;1153;47.986;7.898;2022-12-01T12:05:23;9.67;;;6.40;;
2289;SDS011;1153;47.986;7.898;2022-12-01T12:23:54;5.87;;;4.20;;
2289;SDS011;1153;47.986;7.898;2022-12-01T12:26:26;4.23;;;3.83;;
2289;SDS011;1153;47.986;7.898;2022-12-01T12:29:01;4.83;;;3.87;;
2289;SDS011;1153;47.986;7.898;2022-12-01T12:34:26;8.63;;;5.60;;
2289;SDS011;1153;47.986;7.898;2022-12-01T12:37:08;11.63;;;6.03;;
2289;SDS011;1153;47.986;7.898;2022-12-01T12:42:24;8.73;;;6.00;;
2289;SDS011;1153;47.986;7.898;2022-12-01T12:44:55;11.03;;;7.63;;
2289;SDS011;1153;47.986;7.898;2022-12-01T12:47:25;10.07;;;6.10;;
2289;SDS011;1153;47.986;7.898;2022-12-01T12:52:25;9.30;;;6.40;;
2289;SDS011;1153;47.986;7.898;2022-12-01T12:57:36;7.07;;;5.60;;
2289;SDS011;1153;47.986;7.898;2022-12-01T13:00:07;8.33;;;6.80;;
2289;SDS011;1153;47.986;7.898;2022-12-01T13:02:51;8.50;;;6.63;;
2289;SDS011;1153;47.986;7.898;2022-12-01T13:07:49;6.90;;;5.27;;
2289;SDS011;1153;47.986;7.898;2022-12-01T13:13:09;7.77;;;4.40;;
2289;SDS011;1153;47.986;7.898;2022-12-01T13:15:35;6.97;;;5.83;;
2289;SDS011;1153;47.986;7.898;2022-12-01T13:18:03;6.93;;;5.40;;
2289;SDS011;1153;47.986;7.898;2022-12-01T13:20:33;6.47;;;4.87;;
2289;SDS011;1153;47.986;7.898;2022-12-01T13:22:59;11.00;;;5.23;;
2289;SDS011;1153;47.986;7.898;2022-12-01T13:25:27;12.83;;;5.63;;
2289;SDS011;1153;47.986;7.898;2022-12-01T13:27:54;6.20;;;5.60;;
2289;SDS011;1153;47.986;7.898;2022-12-01T13:30:23;4.97;;;4.43;;
2289;SDS011;1153;47.986;7.898;2022-12-01T13:32:56;10.90;;;6.13;;
2289;SDS011;1153;47.986;7.898;2022-12-01T13:35:26;9.80;;;5.90;;
2289;SDS011;1153;47.986;7.898;2022-12-01T13:38:15;8.00;;;6.30;;
2289;SDS011;1153;47.986;7.898;2022-12-01T13:40:37;8.93;;;5.70;;
2289;SDS011;1153;47.986;7.898;2022-12-01T13:43:04;14.43;;;6.10;;
2289;SDS011;1153;47.986;7.898;2022-12-01T13:45:34;7.40;;;5.87;;
2289;SDS011;1153;47.986;7.898;2022-12-01T13:48:00;8.30;;;5.90;;
2289;SDS011;1153;47.986;7.898;2022-12-01T13:55:34;6.40;;;5.40;;
2289;SDS011;1153;47.986;7.898;2022-12-01T13:58:19;10.47;;;6.40;;
2289;SDS011;1153;47.986;7.898;2022-12-01T14:00:45;7.20;;;5.07;;
2289;SDS011;1153;47.986;7.898;2022-12-01T14:08:27;5.57;;;4.57;;
2289;SDS011;1153;47.986;7.898;2022-12-01T14:10:56;6.70;;;5.20;;
2289;SDS011;1153;47.986;7.898;2022-12-01T14:13:22;9.07;;;5.73;;
2289;SDS011;1153;47.986;7.898;2022-12-01T14:15:57;6.27;;;4.63;;
2289;SDS011;1153;47.986;7.898;2022-12-01T14:18:42;7.37;;;4.87;;
2289;SDS011;1153;47.986;7.898;2022-12-01T14:21:08;5.17;;;4.63;;
2289;SDS011;1153;47.986;7.898;2022-12-01T14:23:36;14.10;;;8.20;;
2289;SDS011;1153;47.986;7.898;2022-12-01T14:26:15;15.20;;;9.07;;
2289;SDS011;1153;47.986;7.898;2022-12-01T14:31:19;14.60;;;7.83;;
2289;SDS011;1153;47.986;7.898;2022-12-01T14:36:16;15.83;;;8.80;;
2289;SDS011;1153;47.986;7.898;2022-12-01T14:38:42;15.43;;;9.70;;
2289;SDS011;1153;47.986;7.898;2022-12-01T14:41:08;17.20;;;9.80;;
2289;SDS011;1153;47.986;7.898;2022-12-01T14:43:34;23.77;;;10.90;;
2289;SDS011;1153;47.986;7.898;2022-12-01T14:46:20;19.00;;;9.40;;
2289;SDS011;1153;47.986;7.898;2022-12-01T14:48:46;20.80;;;10.63;;
2289;SDS011;1153;47.986;7.898;2022-12-01T14:51:17;15.80;;;10.13;;
2289;SDS011;1153;47.986;7.898;2022-12-01T14:53:45;16.90;;;9.50;;
2289;SDS011;1153;47.986;7.898;2022-12-01T14:56:13;18.00;;;10.10;;
2289;SDS011;1153;47.986;7.898;2022-12-01T14:58:49;16.23;;;8.60;;
2289;SDS011;1153;47.986;7.898;2022-12-01T15:01:15;24.97;;;11.40;;
2289;SDS011;1153;47.986;7.898;2022-12-01T15:03:42;20.13;;;9.97;;
2289;SDS011;1153;47.986;7.898;2022-12-01T15:06:08;22.87;;;10.80;;
2289;SDS011;1153;47.986;7.898;2022-12-01T15:08:34;26.00;;;11.13;;
2289;SDS011;1153;47.986;7.898;2022-12-01T15:11:01;22.63;;;10.90;;
2289;SDS011;1153;47.986;7.898;2022-12-01T15:16:02;21.20;;;11.90;;
2289;SDS011;1153;47.986;7.898;2022-12-01T15:23:27;21.60;;;10.90;;
2289;SDS011;1153;47.986;7.898;2022-12-01T15:25:53;25.07;;;15.20;;
2289;SDS011;1153;47.986;7.898;2022-12-01T15:28:20;18.60;;;10.10;;
2289;SDS011;1153;47.986;7.898;2022-12-01T15:30:46;23.07;;;10.60;;
2289;SDS011;1153;47.986;7.898;2022-12-01T15:33:17;20.00;;;10.30;;
2289;SDS011;1153;47.986;7.898;2022-12-01T15:35:43;16.97;;;9.40;;
2289;SDS011;1153;47.986;7.898;2022-12-01T15:38:12;18.57;;;9.50;;
2289;SDS011;1153;47.986;7.898;2022-12-01T15:40:41;19.80;;;10.00;;
2289;SDS011;1153;47.986;7.898;2022-12-01T15:43:13;20.00;;;10.50;;
2289;SDS011;1153;47.986;7.898;2022-12-01T15:46:13;17.57;;;10.17;;
2289;SDS011;1153;47.986;7.898;2022-12-01T15:48:31;17.27;;;10.70;;
2289;SDS011;1153;47.986;7.898;2022-12-01T15:51:00;21.73;;;11.03;;
2289;SDS011;1153;47.986;7.898;2022-12-01T15:53:26;15.40;;;9.40;;
2289;SDS011;1153;47.986;7.898;2022-12-01T15:55:53;22.47;;;11.60;;
2289;SDS011;1153;47.986;7.898;2022-12-01T15:58:33;23.03;;;10.00;;
2289;SDS011;1153;47.986;7.898;2022-12-01T16:03:48;21.00;;;11.60;;
2289;SDS011;1153;47.986;7.898;2022-12-01T16:06:14;19.83;;;10.43;;
2289;SDS011;1153;47.986;7.898;2022-12-01T16:08:40;25.20;;;12.57;;
2289;SDS011;1153;47.986;7.898;2022-12-01T16:11:12;23.00;;;11.23;;
2289;SDS011;1153;47.986;7.898;2022-12-01T16:18:57;20.50;;;11.60;;
2289;SDS011;1153;47.986;7.898;2022-12-01T16:21:23;26.60;;;11.83;;
2289;SDS011;1153;47.986;7.898;2022-12-01T16:23:56;22.70;;;11.27;;
2289;SDS011;1153;47.986;7.898;2022-12-01T16:26:21;23.60;;;12.97;;
2289;SDS011;1153;47.986;7.898;2022-12-01T16:28:47;19.17;;;11.07;;
2289;SDS011;1153;47.986;7.898;2022-12-01T16:31:18;20.60;;;10.90;;
2289;SDS011;1153;47.986;7.898;2022-12-01T16:33:43;20.57;;;11.77;;
2289;SDS011;1153;47.986;7.898;2022-12-01T16:36:09;22.67;;;11.53;;
2289;SDS011;1153;47.986;7.898;2022-12-01T16:38:34;20.50;;;11.87;;
2289;SDS011;1153;47.986;7.898;2022-12-01T16:41:00;19.13;;;10.17;;
2289;SDS011;1153;47.986;7.898;2022-12-01T16:43:26;30.50;;;12.77;;
2289;SDS011;1153;47.986;7.898;2022-12-01T16:46:01;22.87;;;12.13;;
2289;SDS011;1153;47.986;7.898;2022-12-01T16:48:27;22.20;;;13.00;;
2289;SDS011;1153;47.986;7.898;2022-12-01T16:50:52;21.07;;;12.07;;
2289;SDS011;1153;47.986;7.898;2022-12-01T16:53:17;22.63;;;11.00;;
2289;SDS011;1153;47.986;7.898;2022-12-01T16:55:45;24.67;;;12.93;;
2289;SDS011;1153;47.986;7.898;2022-12-01T16:58:11;28.57;;;12.20;;
2289;SDS011;1153;47.986;7.898;2022-12-01T17:00:36;21.87;;;10.07;;
2289;SDS011;1153;47.986;7.898;2022-12-01T17:03:02;25.97;;;11.10;;
2289;SDS011;1153;47.986;7.898;2022-12-01T17:05:28;20.77;;;11.77;;
2289;SDS011;1153;47.986;7.898;2022-12-01T17:07:53;27.30;;;12.80;;